sensor_id;sensor_type;location;lat;lon;timestamp;temperature;humidity
68026;SHT31;54819;48.030;14.710;2022-11-15T00:01:30;6.58;83.67
68026;SHT31;54819;48.030;14.710;2022-11-15T00:04:16;6.54;83.68
68026;SHT31;54819;48.030;14.710;2022-11-15T00:07:01;6.53;83.92
68026;SHT31;54819;48.030;14.710;2022-11-15T00:09:47;6.53;84.19
68026;SHT31;54819;48.030;14.710;2022-11-15T00:12:33;6.51;84.24
68026;SHT31;54819;48.030;14.710;2022-11-15T00:15:18;6.50;84.21
68026;SHT31;54819;48.030;14.710;2022-11-15T00:18:04;6.52;84.14
68026;SHT31;54819;48.030;14.710;2022-11-15T00:20:51;6.52;84.18
68026;SHT31;54819;48.030;14.710;2022-11-15T00:23:37;6.47;84.20
68026;SHT31;54819;48.030;14.710;2022-11-15T00:26:23;6.45;84.35
68026;SHT31;54819;48.030;14.710;2022-11-15T00:29:08;6.43;84.29
68026;SHT31;54819;48.030;14.710;2022-11-15T00:31:54;6.38;84.29
68026;SHT31;54819;48.030;14.710;2022-11-15T00:34:40;6.35;84.29
68026;SHT31;54819;48.030;14.710;2022-11-15T00:37:25;6.35;84.47
68026;SHT31;54819;48.030;14.710;2022-11-15T00:40:11;6.34;84.72
68026;SHT31;54819;48.030;14.710;2022-11-15T00:42:58;6.27;85.62
68026;SHT31;54819;48.030;14.710;2022-11-15T00:45:44;6.23;85.34
68026;SHT31;54819;48.030;14.710;2022-11-15T00:48:30;6.19;85.08
68026;SHT31;54819;48.030;14.710;2022-11-15T00:51:16;6.13;84.79
68026;SHT31;54819;48.030;14.710;2022-11-15T00:54:02;6.08;84.58
68026;SHT31;54819;48.030;14.710;2022-11-15T00:56:47;6.04;84.48
68026;SHT31;54819;48.030;14.710;2022-11-15T00:59:33;6.00;84.45
68026;SHT31;54819;48.030;14.710;2022-11-15T01:02:18;5.97;84.49
68026;SHT31;54819;48.030;14.710;2022-11-15T01:05:04;5.96;84.50
68026;SHT31;54819;48.030;14.710;2022-11-15T01:07:51;5.93;84.59
68026;SHT31;54819;48.030;14.710;2022-11-15T01:10:38;5.91;84.66
68026;SHT31;54819;48.030;14.710;2022-11-15T01:13:23;5.91;84.70
68026;SHT31;54819;48.030;14.710;2022-11-15T01:16:10;5.90;84.69
68026;SHT31;54819;48.030;14.710;2022-11-15T01:19:00;5.87;84.82
68026;SHT31;54819;48.030;14.710;2022-11-15T01:21:48;5.82;84.86
68026;SHT31;54819;48.030;14.710;2022-11-15T01:24:35;5.78;84.53
68026;SHT31;54819;48.030;14.710;2022-11-15T01:27:21;5.74;84.36
68026;SHT31;54819;48.030;14.710;2022-11-15T01:30:06;5.68;84.54
68026;SHT31;54819;48.030;14.710;2022-11-15T01:32:53;5.69;84.89
68026;SHT31;54819;48.030;14.710;2022-11-15T01:35:39;5.70;85.20
68026;SHT31;54819;48.030;14.710;2022-11-15T01:38:25;5.70;85.35
68026;SHT31;54819;48.030;14.710;2022-11-15T01:41:18;5.71;86.29
68026;SHT31;54819;48.030;14.710;2022-11-15T01:47:27;5.74;85.94
68026;SHT31;54819;48.030;14.710;2022-11-15T01:50:28;5.74;85.91
68026;SHT31;54819;48.030;14.710;2022-11-15T01:53:17;5.70;85.82
68026;SHT31;54819;48.030;14.710;2022-11-15T01:56:13;5.68;85.88
68026;SHT31;54819;48.030;14.710;2022-11-15T01:59:05;5.68;85.87
68026;SHT31;54819;48.030;14.710;2022-11-15T02:01:54;5.68;86.07
68026;SHT31;54819;48.030;14.710;2022-11-15T02:04:41;5.66;85.79
68026;SHT31;54819;48.030;14.710;2022-11-15T02:07:31;5.62;85.63
68026;SHT31;54819;48.030;14.710;2022-11-15T02:10:21;5.62;85.91
68026;SHT31;54819;48.030;14.710;2022-11-15T02:13:09;5.59;86.23
68026;SHT31;54819;48.030;14.710;2022-11-15T02:16:02;5.54;86.30
68026;SHT31;54819;48.030;14.710;2022-11-15T02:28:39;5.34;85.89
68026;SHT31;54819;48.030;14.710;2022-11-15T02:41:25;5.37;86.35
68026;SHT31;54819;48.030;14.710;2022-11-15T02:44:27;5.44;86.27
68026;SHT31;54819;48.030;14.710;2022-11-15T02:47:22;5.49;86.14
68026;SHT31;54819;48.030;14.710;2022-11-15T02:50:13;5.51;86.32
68026;SHT31;54819;48.030;14.710;2022-11-15T02:53:03;5.49;86.39
68026;SHT31;54819;48.030;14.710;2022-11-15T02:55:49;5.53;86.05
68026;SHT31;54819;48.030;14.710;2022-11-15T03:01:42;5.33;86.06
68026;SHT31;54819;48.030;14.710;2022-11-15T03:04:58;5.28;86.26
68026;SHT31;54819;48.030;14.710;2022-11-15T03:08:01;5.26;86.29
68026;SHT31;54819;48.030;14.710;2022-11-15T03:17:02;5.16;86.51
68026;SHT31;54819;48.030;14.710;2022-11-15T03:20:04;5.11;86.70
68026;SHT31;54819;48.030;14.710;2022-11-15T03:22:54;5.07;86.54
68026;SHT31;54819;48.030;14.710;2022-11-15T03:25:50;5.03;86.44
68026;SHT31;54819;48.030;14.710;2022-11-15T03:28:40;4.99;86.42
68026;SHT31;54819;48.030;14.710;2022-11-15T03:31:37;4.92;86.35
68026;SHT31;54819;48.030;14.710;2022-11-15T03:34:45;4.88;86.33
68026;SHT31;54819;48.030;14.710;2022-11-15T03:40:42;4.80;86.40
68026;SHT31;54819;48.030;14.710;2022-11-15T03:43:41;4.75;86.41
68026;SHT31;54819;48.030;14.710;2022-11-15T03:47:00;4.71;86.46
68026;SHT31;54819;48.030;14.710;2022-11-15T03:50:02;4.67;86.44
68026;SHT31;54819;48.030;14.710;2022-11-15T03:52:55;4.61;86.69
68026;SHT31;54819;48.030;14.710;2022-11-15T03:55:42;4.56;86.75
68026;SHT31;54819;48.030;14.710;2022-11-15T03:58:28;4.53;86.47
68026;SHT31;54819;48.030;14.710;2022-11-15T04:01:13;4.48;86.30
68026;SHT31;54819;48.030;14.710;2022-11-15T04:03:59;4.43;86.19
68026;SHT31;54819;48.030;14.710;2022-11-15T04:06:45;4.38;86.24
68026;SHT31;54819;48.030;14.710;2022-11-15T04:09:30;4.37;86.34
68026;SHT31;54819;48.030;14.710;2022-11-15T04:12:16;4.35;86.44
68026;SHT31;54819;48.030;14.710;2022-11-15T04:15:21;4.35;86.56
68026;SHT31;54819;48.030;14.710;2022-11-15T04:18:08;4.32;86.72
68026;SHT31;54819;48.030;14.710;2022-11-15T04:20:54;4.33;87.08
68026;SHT31;54819;48.030;14.710;2022-11-15T04:23:58;4.34;87.10
68026;SHT31;54819;48.030;14.710;2022-11-15T04:26:52;4.38;86.97
68026;SHT31;54819;48.030;14.710;2022-11-15T04:29:37;4.40;86.82
68026;SHT31;54819;48.030;14.710;2022-11-15T04:32:23;4.44;86.66
68026;SHT31;54819;48.030;14.710;2022-11-15T04:35:09;4.49;86.61
68026;SHT31;54819;48.030;14.710;2022-11-15T04:37:55;4.56;86.83
68026;SHT31;54819;48.030;14.710;2022-11-15T04:40:42;4.65;87.03
68026;SHT31;54819;48.030;14.710;2022-11-15T04:43:28;4.68;87.24
68026;SHT31;54819;48.030;14.710;2022-11-15T04:46:14;4.70;87.79
68026;SHT31;54819;48.030;14.710;2022-11-15T04:49:00;4.73;87.91
68026;SHT31;54819;48.030;14.710;2022-11-15T04:51:46;4.79;88.02
68026;SHT31;54819;48.030;14.710;2022-11-15T04:54:31;4.81;88.42
68026;SHT31;54819;48.030;14.710;2022-11-15T04:57:17;4.83;88.75
68026;SHT31;54819;48.030;14.710;2022-11-15T05:00:07;4.85;88.96
68026;SHT31;54819;48.030;14.710;2022-11-15T05:03:00;4.89;88.70
68026;SHT31;54819;48.030;14.710;2022-11-15T05:06:04;4.88;88.72
68026;SHT31;54819;48.030;14.710;2022-11-15T05:08:51;4.82;89.24
68026;SHT31;54819;48.030;14.710;2022-11-15T05:11:36;4.82;89.22
68026;SHT31;54819;48.030;14.710;2022-11-15T05:14:22;4.89;89.57
68026;SHT31;54819;48.030;14.710;2022-11-15T05:17:08;4.93;90.09
68026;SHT31;54819;48.030;14.710;2022-11-15T05:19:53;4.95;90.09
68026;SHT31;54819;48.030;14.710;2022-11-15T05:22:39;5.02;89.88
68026;SHT31;54819;48.030;14.710;2022-11-15T05:25:25;5.12;90.01
68026;SHT31;54819;48.030;14.710;2022-11-15T05:28:11;5.12;90.56
68026;SHT31;54819;48.030;14.710;2022-11-15T05:31:03;5.07;90.94
68026;SHT31;54819;48.030;14.710;2022-11-15T05:33:55;5.08;90.87
68026;SHT31;54819;48.030;14.710;2022-11-15T05:36:43;5.12;90.87
68026;SHT31;54819;48.030;14.710;2022-11-15T05:39:30;5.14;90.82
68026;SHT31;54819;48.030;14.710;2022-11-15T05:42:16;5.16;91.03
68026;SHT31;54819;48.030;14.710;2022-11-15T05:45:03;5.14;91.05
68026;SHT31;54819;48.030;14.710;2022-11-15T05:47:53;5.15;91.10
68026;SHT31;54819;48.030;14.710;2022-11-15T05:50:44;5.16;90.79
68026;SHT31;54819;48.030;14.710;2022-11-15T05:53:32;5.15;90.37
68026;SHT31;54819;48.030;14.710;2022-11-15T05:56:20;5.14;90.22
68026;SHT31;54819;48.030;14.710;2022-11-15T05:59:06;5.13;90.33
68026;SHT31;54819;48.030;14.710;2022-11-15T06:01:54;5.11;90.74
68026;SHT31;54819;48.030;14.710;2022-11-15T06:04:40;5.14;90.96
68026;SHT31;54819;48.030;14.710;2022-11-15T06:07:25;5.24;90.58
68026;SHT31;54819;48.030;14.710;2022-11-15T06:10:11;5.31;90.41
68026;SHT31;54819;48.030;14.710;2022-11-15T06:13:01;5.35;90.50
68026;SHT31;54819;48.030;14.710;2022-11-15T06:15:49;5.37;90.75
68026;SHT31;54819;48.030;14.710;2022-11-15T06:18:35;5.45;90.34
68026;SHT31;54819;48.030;14.710;2022-11-15T06:21:22;5.49;90.10
68026;SHT31;54819;48.030;14.710;2022-11-15T06:24:08;5.50;89.81
68026;SHT31;54819;48.030;14.710;2022-11-15T06:26:54;5.45;89.84
68026;SHT31;54819;48.030;14.710;2022-11-15T06:29:40;5.44;89.85
68026;SHT31;54819;48.030;14.710;2022-11-15T06:32:25;5.42;90.37
68026;SHT31;54819;48.030;14.710;2022-11-15T06:35:11;5.35;90.66
68026;SHT31;54819;48.030;14.710;2022-11-15T06:38:06;5.36;90.91
68026;SHT31;54819;48.030;14.710;2022-11-15T06:40:54;5.33;91.10
68026;SHT31;54819;48.030;14.710;2022-11-15T06:43:45;5.30;91.33
68026;SHT31;54819;48.030;14.710;2022-11-15T06:46:31;5.31;91.53
68026;SHT31;54819;48.030;14.710;2022-11-15T06:49:16;5.33;91.30
68026;SHT31;54819;48.030;14.710;2022-11-15T06:52:02;5.36;91.38
68026;SHT31;54819;48.030;14.710;2022-11-15T06:54:48;5.43;91.22
68026;SHT31;54819;48.030;14.710;2022-11-15T06:57:33;5.44;91.34
68026;SHT31;54819;48.030;14.710;2022-11-15T07:00:20;5.48;91.90
68026;SHT31;54819;48.030;14.710;2022-11-15T07:03:07;5.57;91.44
68026;SHT31;54819;48.030;14.710;2022-11-15T07:05:54;5.61;91.41
68026;SHT31;54819;48.030;14.710;2022-11-15T07:08:50;5.69;91.41
68026;SHT31;54819;48.030;14.710;2022-11-15T07:11:36;5.76;91.22
68026;SHT31;54819;48.030;14.710;2022-11-15T07:14:21;5.77;91.28
68026;SHT31;54819;48.030;14.710;2022-11-15T07:17:07;5.81;91.17
68026;SHT31;54819;48.030;14.710;2022-11-15T07:19:53;5.89;90.96
68026;SHT31;54819;48.030;14.710;2022-11-15T07:22:39;5.97;90.79
68026;SHT31;54819;48.030;14.710;2022-11-15T07:25:25;6.07;90.48
68026;SHT31;54819;48.030;14.710;2022-11-15T07:28:11;6.14;90.36
68026;SHT31;54819;48.030;14.710;2022-11-15T07:30:56;6.21;90.25
68026;SHT31;54819;48.030;14.710;2022-11-15T07:33:42;6.24;90.03
68026;SHT31;54819;48.030;14.710;2022-11-15T07:36:27;6.23;90.03
68026;SHT31;54819;48.030;14.710;2022-11-15T07:39:13;6.22;90.04
68026;SHT31;54819;48.030;14.710;2022-11-15T07:41:59;6.29;89.93
68026;SHT31;54819;48.030;14.710;2022-11-15T07:45:03;6.37;89.62
68026;SHT31;54819;48.030;14.710;2022-11-15T07:47:50;6.41;89.50
68026;SHT31;54819;48.030;14.710;2022-11-15T07:50:35;6.49;89.52
68026;SHT31;54819;48.030;14.710;2022-11-15T07:53:21;6.54;89.60
68026;SHT31;54819;48.030;14.710;2022-11-15T07:56:07;6.59;89.39
68026;SHT31;54819;48.030;14.710;2022-11-15T07:58:53;6.51;89.32
68026;SHT31;54819;48.030;14.710;2022-11-15T08:01:39;6.41;89.62
68026;SHT31;54819;48.030;14.710;2022-11-15T08:04:25;6.34;89.73
68026;SHT31;54819;48.030;14.710;2022-11-15T08:07:10;6.33;89.89
68026;SHT31;54819;48.030;14.710;2022-11-15T08:09:57;6.32;90.16
68026;SHT31;54819;48.030;14.710;2022-11-15T08:12:43;6.38;89.94
68026;SHT31;54819;48.030;14.710;2022-11-15T08:15:29;6.40;90.02
68026;SHT31;54819;48.030;14.710;2022-11-15T08:18:16;6.35;89.95
68026;SHT31;54819;48.030;14.710;2022-11-15T08:21:03;6.39;89.73
68026;SHT31;54819;48.030;14.710;2022-11-15T08:23:49;6.42;89.65
68026;SHT31;54819;48.030;14.710;2022-11-15T08:26:35;6.42;89.80
68026;SHT31;54819;48.030;14.710;2022-11-15T08:29:20;6.36;89.89
68026;SHT31;54819;48.030;14.710;2022-11-15T08:32:06;6.38;89.68
68026;SHT31;54819;48.030;14.710;2022-11-15T08:34:52;6.32;90.01
68026;SHT31;54819;48.030;14.710;2022-11-15T08:37:38;6.34;90.07
68026;SHT31;54819;48.030;14.710;2022-11-15T08:40:23;6.40;90.09
68026;SHT31;54819;48.030;14.710;2022-11-15T08:43:09;6.48;90.05
68026;SHT31;54819;48.030;14.710;2022-11-15T08:45:57;6.48;89.94
68026;SHT31;54819;48.030;14.710;2022-11-15T08:48:43;6.54;89.94
68026;SHT31;54819;48.030;14.710;2022-11-15T08:51:29;6.61;89.98
68026;SHT31;54819;48.030;14.710;2022-11-15T08:54:14;6.74;89.35
68026;SHT31;54819;48.030;14.710;2022-11-15T08:57:00;6.85;89.22
68026;SHT31;54819;48.030;14.710;2022-11-15T08:59:46;6.91;89.00
68026;SHT31;54819;48.030;14.710;2022-11-15T09:02:31;6.94;88.85
68026;SHT31;54819;48.030;14.710;2022-11-15T09:05:17;6.95;88.87
68026;SHT31;54819;48.030;14.710;2022-11-15T09:08:03;7.03;88.95
68026;SHT31;54819;48.030;14.710;2022-11-15T09:11:10;7.11;88.96
68026;SHT31;54819;48.030;14.710;2022-11-15T09:13:55;7.19;88.80
68026;SHT31;54819;48.030;14.710;2022-11-15T09:16:41;7.19;88.37
68026;SHT31;54819;48.030;14.710;2022-11-15T09:19:26;7.23;88.20
68026;SHT31;54819;48.030;14.710;2022-11-15T09:22:12;7.21;87.84
68026;SHT31;54819;48.030;14.710;2022-11-15T09:24:57;7.21;88.10
68026;SHT31;54819;48.030;14.710;2022-11-15T09:27:43;7.31;88.20
68026;SHT31;54819;48.030;14.710;2022-11-15T09:30:29;7.38;88.00
68026;SHT31;54819;48.030;14.710;2022-11-15T09:33:14;7.37;87.87
68026;SHT31;54819;48.030;14.710;2022-11-15T09:36:07;7.35;87.87
68026;SHT31;54819;48.030;14.710;2022-11-15T09:38:54;7.30;87.76
68026;SHT31;54819;48.030;14.710;2022-11-15T09:48:30;7.05;87.89
68026;SHT31;54819;48.030;14.710;2022-11-15T09:51:38;6.99;88.23
68026;SHT31;54819;48.030;14.710;2022-11-15T09:54:21;7.01;88.24
68026;SHT31;54819;48.030;14.710;2022-11-15T10:00:08;6.99;88.50
68026;SHT31;54819;48.030;14.710;2022-11-15T10:05:34;7.19;88.46
68026;SHT31;54819;48.030;14.710;2022-11-15T10:11:16;7.24;87.90
68026;SHT31;54819;48.030;14.710;2022-11-15T10:19:45;7.40;87.37
68026;SHT31;54819;48.030;14.710;2022-11-15T10:22:30;7.44;87.50
68026;SHT31;54819;48.030;14.710;2022-11-15T10:27:35;7.59;87.44
68026;SHT31;54819;48.030;14.710;2022-11-15T10:30:03;7.59;87.12
68026;SHT31;54819;48.030;14.710;2022-11-15T10:32:39;7.57;87.32
68026;SHT31;54819;48.030;14.710;2022-11-15T10:35:17;7.63;87.41
68026;SHT31;54819;48.030;14.710;2022-11-15T10:37:49;7.70;86.98
68026;SHT31;54819;48.030;14.710;2022-11-15T10:40:20;7.66;86.88
68026;SHT31;54819;48.030;14.710;2022-11-15T10:45:40;7.64;87.19
68026;SHT31;54819;48.030;14.710;2022-11-15T10:50:38;7.66;87.41
68026;SHT31;54819;48.030;14.710;2022-11-15T10:55:48;7.78;87.33
68026;SHT31;54819;48.030;14.710;2022-11-15T11:01:17;7.84;86.77
68026;SHT31;54819;48.030;14.710;2022-11-15T11:04:02;7.87;86.48
68026;SHT31;54819;48.030;14.710;2022-11-15T11:06:54;7.84;86.53
68026;SHT31;54819;48.030;14.710;2022-11-15T11:09:35;7.78;86.98
68026;SHT31;54819;48.030;14.710;2022-11-15T11:12:05;7.80;87.04
68026;SHT31;54819;48.030;14.710;2022-11-15T11:14:38;7.80;86.79
68026;SHT31;54819;48.030;14.710;2022-11-15T11:17:13;7.70;87.04
68026;SHT31;54819;48.030;14.710;2022-11-15T11:25:40;7.90;87.04
68026;SHT31;54819;48.030;14.710;2022-11-15T11:48:56;7.85;86.71
68026;SHT31;54819;48.030;14.710;2022-11-15T11:51:40;7.85;86.71
68026;SHT31;54819;48.030;14.710;2022-11-15T11:54:14;7.83;86.62
68026;SHT31;54819;48.030;14.710;2022-11-15T11:56:57;7.81;86.58
68026;SHT31;54819;48.030;14.710;2022-11-15T12:02:28;7.67;86.84
68026;SHT31;54819;48.030;14.710;2022-11-15T12:05:04;7.57;87.05
68026;SHT31;54819;48.030;14.710;2022-11-15T12:07:42;7.51;87.14
68026;SHT31;54819;48.030;14.710;2022-11-15T12:10:23;7.47;86.93
68026;SHT31;54819;48.030;14.710;2022-11-15T12:12:59;7.33;87.17
68026;SHT31;54819;48.030;14.710;2022-11-15T12:15:43;7.32;87.28
68026;SHT31;54819;48.030;14.710;2022-11-15T12:18:17;7.27;87.33
68026;SHT31;54819;48.030;14.710;2022-11-15T12:20:52;7.28;87.48
68026;SHT31;54819;48.030;14.710;2022-11-15T12:23:37;7.26;87.76
68026;SHT31;54819;48.030;14.710;2022-11-15T12:26:20;7.33;87.69
68026;SHT31;54819;48.030;14.710;2022-11-15T12:28:54;7.39;87.66
68026;SHT31;54819;48.030;14.710;2022-11-15T12:34:02;7.47;87.75
68026;SHT31;54819;48.030;14.710;2022-11-15T12:36:55;7.47;87.77
68026;SHT31;54819;48.030;14.710;2022-11-15T12:40:03;7.48;87.56
68026;SHT31;54819;48.030;14.710;2022-11-15T12:44:57;7.38;87.64
68026;SHT31;54819;48.030;14.710;2022-11-15T12:47:26;7.36;87.77
68026;SHT31;54819;48.030;14.710;2022-11-15T12:49:53;7.34;87.93
68026;SHT31;54819;48.030;14.710;2022-11-15T12:52:21;7.31;88.09
68026;SHT31;54819;48.030;14.710;2022-11-15T12:54:52;7.34;87.97
68026;SHT31;54819;48.030;14.710;2022-11-15T12:57:28;7.28;88.14
68026;SHT31;54819;48.030;14.710;2022-11-15T13:00:05;7.30;87.96
68026;SHT31;54819;48.030;14.710;2022-11-15T13:02:51;7.31;87.98
68026;SHT31;54819;48.030;14.710;2022-11-15T13:05:55;7.32;87.96
68026;SHT31;54819;48.030;14.710;2022-11-15T13:08:42;7.35;87.68
68026;SHT31;54819;48.030;14.710;2022-11-15T13:30:50;7.24;88.18
68026;SHT31;54819;48.030;14.710;2022-11-15T13:39:02;7.21;88.05
68026;SHT31;54819;48.030;14.710;2022-11-15T13:41:34;7.22;87.99
68026;SHT31;54819;48.030;14.710;2022-11-15T13:44:18;7.23;88.11
68026;SHT31;54819;48.030;14.710;2022-11-15T13:47:24;7.26;88.09
68026;SHT31;54819;48.030;14.710;2022-11-15T13:49:46;7.23;88.27
68026;SHT31;54819;48.030;14.710;2022-11-15T13:52:14;7.22;88.33
68026;SHT31;54819;48.030;14.710;2022-11-15T13:54:57;7.22;88.48
68026;SHT31;54819;48.030;14.710;2022-11-15T13:57:40;7.21;88.49
68026;SHT31;54819;48.030;14.710;2022-11-15T14:03:16;7.30;88.22
68026;SHT31;54819;48.030;14.710;2022-11-15T14:08:58;7.28;88.16
68026;SHT31;54819;48.030;14.710;2022-11-15T14:11:33;7.30;88.09
68026;SHT31;54819;48.030;14.710;2022-11-15T14:16:43;7.31;88.26
68026;SHT31;54819;48.030;14.710;2022-11-15T14:19:33;7.30;88.32
68026;SHT31;54819;48.030;14.710;2022-11-15T14:22:22;7.33;88.36
68026;SHT31;54819;48.030;14.710;2022-11-15T14:27:43;7.32;88.29
68026;SHT31;54819;48.030;14.710;2022-11-15T14:30:36;7.28;88.12
68026;SHT31;54819;48.030;14.710;2022-11-15T14:36:10;7.24;88.16
68026;SHT31;54819;48.030;14.710;2022-11-15T14:38:47;7.14;88.65
68026;SHT31;54819;48.030;14.710;2022-11-15T14:41:18;7.13;88.74
68026;SHT31;54819;48.030;14.710;2022-11-15T14:43:53;7.16;88.75
68026;SHT31;54819;48.030;14.710;2022-11-15T14:46:20;7.20;88.63
68026;SHT31;54819;48.030;14.710;2022-11-15T14:48:47;7.16;88.60
68026;SHT31;54819;48.030;14.710;2022-11-15T14:51:15;7.11;88.65
68026;SHT31;54819;48.030;14.710;2022-11-15T14:53:44;7.05;88.84
68026;SHT31;54819;48.030;14.710;2022-11-15T14:56:13;7.00;88.89
68026;SHT31;54819;48.030;14.710;2022-11-15T14:58:42;6.99;88.92
68026;SHT31;54819;48.030;14.710;2022-11-15T15:01:30;6.98;89.04
68026;SHT31;54819;48.030;14.710;2022-11-15T15:03:56;7.00;89.12
68026;SHT31;54819;48.030;14.710;2022-11-15T15:06:25;7.04;89.12
68026;SHT31;54819;48.030;14.710;2022-11-15T15:08:52;7.07;89.01
68026;SHT31;54819;48.030;14.710;2022-11-15T15:11:23;7.03;89.00
68026;SHT31;54819;48.030;14.710;2022-11-15T15:13:53;7.05;89.09
68026;SHT31;54819;48.030;14.710;2022-11-15T15:16:25;7.03;89.13
68026;SHT31;54819;48.030;14.710;2022-11-15T15:18:52;7.03;89.18
68026;SHT31;54819;48.030;14.710;2022-11-15T15:21:21;7.05;89.13
68026;SHT31;54819;48.030;14.710;2022-11-15T15:23:50;7.04;89.11
68026;SHT31;54819;48.030;14.710;2022-11-15T15:26:21;7.01;89.08
68026;SHT31;54819;48.030;14.710;2022-11-15T15:28:49;7.03;88.92
68026;SHT31;54819;48.030;14.710;2022-11-15T15:31:18;6.99;89.05
68026;SHT31;54819;48.030;14.710;2022-11-15T15:33:45;6.97;89.06
68026;SHT31;54819;48.030;14.710;2022-11-15T15:36:13;6.94;89.10
68026;SHT31;54819;48.030;14.710;2022-11-15T15:38:44;6.96;89.11
68026;SHT31;54819;48.030;14.710;2022-11-15T15:41:13;6.96;89.10
68026;SHT31;54819;48.030;14.710;2022-11-15T15:43:42;6.96;89.24
68026;SHT31;54819;48.030;14.710;2022-11-15T15:46:14;6.98;89.18
68026;SHT31;54819;48.030;14.710;2022-11-15T15:48:44;7.01;89.07
68026;SHT31;54819;48.030;14.710;2022-11-15T15:51:12;7.03;89.11
68026;SHT31;54819;48.030;14.710;2022-11-15T15:53:46;7.05;89.20
68026;SHT31;54819;48.030;14.710;2022-11-15T15:56:14;7.06;89.34
68026;SHT31;54819;48.030;14.710;2022-11-15T15:58:41;7.07;89.31
68026;SHT31;54819;48.030;14.710;2022-11-15T16:01:08;7.10;89.00
68026;SHT31;54819;48.030;14.710;2022-11-15T16:03:35;7.08;88.93
68026;SHT31;54819;48.030;14.710;2022-11-15T16:06:02;7.14;88.94
68026;SHT31;54819;48.030;14.710;2022-11-15T16:08:30;7.16;89.01
68026;SHT31;54819;48.030;14.710;2022-11-15T16:11:17;7.16;89.11
68026;SHT31;54819;48.030;14.710;2022-11-15T16:13:44;7.16;89.37
68026;SHT31;54819;48.030;14.710;2022-11-15T16:16:12;7.14;89.46
68026;SHT31;54819;48.030;14.710;2022-11-15T16:18:40;7.14;89.64
68026;SHT31;54819;48.030;14.710;2022-11-15T16:21:07;7.11;89.86
68026;SHT31;54819;48.030;14.710;2022-11-15T16:23:35;7.08;89.99
68026;SHT31;54819;48.030;14.710;2022-11-15T16:26:02;7.09;89.90
68026;SHT31;54819;48.030;14.710;2022-11-15T16:28:46;7.14;89.94
68026;SHT31;54819;48.030;14.710;2022-11-15T16:31:13;7.16;89.84
68026;SHT31;54819;48.030;14.710;2022-11-15T16:33:40;7.15;89.76
68026;SHT31;54819;48.030;14.710;2022-11-15T16:36:21;7.13;89.78
68026;SHT31;54819;48.030;14.710;2022-11-15T16:38:56;7.11;89.75
68026;SHT31;54819;48.030;14.710;2022-11-15T16:41:24;7.11;89.86
68026;SHT31;54819;48.030;14.710;2022-11-15T16:43:51;7.15;89.95
68026;SHT31;54819;48.030;14.710;2022-11-15T16:46:22;7.22;89.85
68026;SHT31;54819;48.030;14.710;2022-11-15T16:48:52;7.24;89.71
68026;SHT31;54819;48.030;14.710;2022-11-15T16:51:20;7.30;89.61
68026;SHT31;54819;48.030;14.710;2022-11-15T16:53:48;7.28;89.64
68026;SHT31;54819;48.030;14.710;2022-11-15T16:56:25;7.33;89.67
68026;SHT31;54819;48.030;14.710;2022-11-15T16:58:56;7.40;89.56
68026;SHT31;54819;48.030;14.710;2022-11-15T17:01:26;7.45;89.48
68026;SHT31;54819;48.030;14.710;2022-11-15T17:04:02;7.48;89.28
68026;SHT31;54819;48.030;14.710;2022-11-15T17:06:38;7.50;89.14
68026;SHT31;54819;48.030;14.710;2022-11-15T17:09:17;7.51;88.87
68026;SHT31;54819;48.030;14.710;2022-11-15T17:11:50;7.49;88.80
68026;SHT31;54819;48.030;14.710;2022-11-15T17:14:19;7.53;88.81
68026;SHT31;54819;48.030;14.710;2022-11-15T17:16:46;7.52;88.72
68026;SHT31;54819;48.030;14.710;2022-11-15T17:19:14;7.53;88.66
68026;SHT31;54819;48.030;14.710;2022-11-15T17:21:45;7.50;88.60
68026;SHT31;54819;48.030;14.710;2022-11-15T17:24:15;7.53;88.60
68026;SHT31;54819;48.030;14.710;2022-11-15T17:26:43;7.52;88.43
68026;SHT31;54819;48.030;14.710;2022-11-15T17:29:10;7.54;88.45
68026;SHT31;54819;48.030;14.710;2022-11-15T17:31:39;7.57;88.43
68026;SHT31;54819;48.030;14.710;2022-11-15T17:34:06;7.59;88.23
68026;SHT31;54819;48.030;14.710;2022-11-15T17:36:34;7.57;88.06
68026;SHT31;54819;48.030;14.710;2022-11-15T17:39:03;7.52;87.94
68026;SHT31;54819;48.030;14.710;2022-11-15T17:41:31;7.50;88.14
68026;SHT31;54819;48.030;14.710;2022-11-15T17:43:58;7.55;88.31
68026;SHT31;54819;48.030;14.710;2022-11-15T17:46:27;7.59;88.29
68026;SHT31;54819;48.030;14.710;2022-11-15T17:48:55;7.57;88.18
68026;SHT31;54819;48.030;14.710;2022-11-15T17:51:24;7.54;88.46
68026;SHT31;54819;48.030;14.710;2022-11-15T17:53:51;7.57;88.59
68026;SHT31;54819;48.030;14.710;2022-11-15T17:56:20;7.58;88.47
68026;SHT31;54819;48.030;14.710;2022-11-15T17:58:50;7.51;88.56
68026;SHT31;54819;48.030;14.710;2022-11-15T18:01:30;7.50;88.42
68026;SHT31;54819;48.030;14.710;2022-11-15T18:04:03;7.49;88.37
68026;SHT31;54819;48.030;14.710;2022-11-15T18:06:35;7.48;88.52
68026;SHT31;54819;48.030;14.710;2022-11-15T18:09:03;7.51;88.52
68026;SHT31;54819;48.030;14.710;2022-11-15T18:11:36;7.55;88.55
68026;SHT31;54819;48.030;14.710;2022-11-15T18:14:09;7.54;88.51
68026;SHT31;54819;48.030;14.710;2022-11-15T18:16:41;7.57;88.54
68026;SHT31;54819;48.030;14.710;2022-11-15T18:19:08;7.60;88.58
68026;SHT31;54819;48.030;14.710;2022-11-15T18:21:40;7.66;88.56
68026;SHT31;54819;48.030;14.710;2022-11-15T18:26:53;7.69;88.23
68026;SHT31;54819;48.030;14.710;2022-11-15T18:29:20;7.69;88.05
68026;SHT31;54819;48.030;14.710;2022-11-15T18:31:50;7.68;88.07
68026;SHT31;54819;48.030;14.710;2022-11-15T18:34:23;7.72;88.09
68026;SHT31;54819;48.030;14.710;2022-11-15T18:36:59;7.75;88.17
68026;SHT31;54819;48.030;14.710;2022-11-15T18:39:29;7.77;88.20
68026;SHT31;54819;48.030;14.710;2022-11-15T18:41:57;7.77;88.22
68026;SHT31;54819;48.030;14.710;2022-11-15T18:44:24;7.79;88.28
68026;SHT31;54819;48.030;14.710;2022-11-15T18:46:53;7.80;88.02
68026;SHT31;54819;48.030;14.710;2022-11-15T18:49:21;7.77;88.02
68026;SHT31;54819;48.030;14.710;2022-11-15T18:51:48;7.74;88.04
68026;SHT31;54819;48.030;14.710;2022-11-15T18:54:15;7.68;88.22
68026;SHT31;54819;48.030;14.710;2022-11-15T18:56:43;7.72;88.18
68026;SHT31;54819;48.030;14.710;2022-11-15T18:59:12;7.70;88.19
68026;SHT31;54819;48.030;14.710;2022-11-15T19:01:44;7.68;88.37
68026;SHT31;54819;48.030;14.710;2022-11-15T19:04:15;7.66;88.31
68026;SHT31;54819;48.030;14.710;2022-11-15T19:06:48;7.67;88.30
68026;SHT31;54819;48.030;14.710;2022-11-15T19:09:17;7.67;88.29
68026;SHT31;54819;48.030;14.710;2022-11-15T19:11:46;7.61;88.36
68026;SHT31;54819;48.030;14.710;2022-11-15T19:14:18;7.65;88.14
68026;SHT31;54819;48.030;14.710;2022-11-15T19:16:49;7.65;88.04
68026;SHT31;54819;48.030;14.710;2022-11-15T19:19:22;7.66;87.95
68026;SHT31;54819;48.030;14.710;2022-11-15T19:21:53;7.69;88.10
68026;SHT31;54819;48.030;14.710;2022-11-15T19:24:23;7.73;88.19